createdAt,value
2022-09-12T00:01:05.233Z,0.40
2022-09-12T00:03:33.274Z,0.30
2022-09-12T00:06:01.301Z,0.40
2022-09-12T00:08:29.224Z,0.20
2022-09-12T00:10:58.514Z,0.30
2022-09-12T00:13:26.380Z,0.27
2022-09-12T00:15:54.340Z,0.30
2022-09-12T00:18:22.243Z,0.20
2022-09-12T00:20:50.126Z,0.20
2022-09-12T00:23:18.026Z,0.20
2022-09-12T00:25:47.293Z,0.30
2022-09-12T00:28:19.065Z,0.20
2022-09-12T00:30:49.322Z,0.30
2022-09-12T00:33:18.625Z,0.30
2022-09-12T00:35:48.147Z,0.20
2022-09-12T00:38:16.963Z,0.20
2022-09-12T00:40:45.748Z,0.30
2022-09-12T00:43:34.305Z,0.23
2022-09-12T00:46:07.705Z,0.30
2022-09-12T00:48:41.632Z,0.30
2022-09-12T00:51:10.596Z,0.30
2022-09-12T00:53:39.943Z,0.23
2022-09-12T00:56:08.794Z,0.30
2022-09-12T00:58:44.232Z,0.30
2022-09-12T01:01:12.367Z,0.30
2022-09-12T01:03:41.653Z,0.30
2022-09-12T01:06:16.559Z,0.40
2022-09-12T01:08:46.795Z,0.20
2022-09-12T01:11:16.834Z,0.30
2022-09-12T01:13:47.089Z,0.20
2022-09-12T01:16:15.335Z,0.30
2022-09-12T01:18:53.750Z,0.30
2022-09-12T01:21:34.666Z,0.20
2022-09-12T01:24:35.631Z,0.40
2022-09-12T01:27:21.472Z,0.30
2022-09-12T01:30:24.839Z,0.40
2022-09-12T01:33:28.646Z,0.30
2022-09-12T01:36:12.442Z,0.33
2022-09-12T01:38:47.778Z,0.30
2022-09-12T01:41:20.592Z,0.30
2022-09-12T01:43:54.707Z,0.40
2022-09-12T01:46:28.571Z,0.30
2022-09-12T01:49:07.403Z,0.30
2022-09-12T01:51:40.694Z,0.30
2022-09-12T01:54:13.590Z,0.27
2022-09-12T01:56:44.744Z,0.30
2022-09-12T01:59:19.124Z,0.30
2022-09-12T02:01:50.686Z,0.30
2022-09-12T02:04:23.910Z,0.30
2022-09-12T02:06:58.375Z,0.30
2022-09-12T02:09:32.015Z,0.30
2022-09-12T02:12:01.802Z,0.30
2022-09-12T02:14:33.298Z,0.30
2022-09-12T02:17:07.083Z,0.30
2022-09-12T02:19:42.067Z,0.30
2022-09-12T02:22:14.628Z,0.33
2022-09-12T02:24:46.645Z,0.30
2022-09-12T02:27:17.500Z,0.40
2022-09-12T02:29:46.496Z,0.30
2022-09-12T02:32:26.508Z,0.30
2022-09-12T02:35:00.803Z,0.30
2022-09-12T02:37:41.690Z,0.30
2022-09-12T02:40:09.926Z,0.27
2022-09-12T02:42:38.043Z,0.37
2022-09-12T02:45:07.157Z,0.30
2022-09-12T02:47:38.725Z,0.30
2022-09-12T02:50:09.775Z,0.30
2022-09-12T02:52:37.731Z,0.30
2022-09-12T02:55:08.384Z,0.30
2022-09-12T02:57:36.616Z,0.40
2022-09-12T03:00:06.271Z,0.23
2022-09-12T03:02:48.223Z,0.30
2022-09-12T03:05:27.814Z,0.30
2022-09-12T03:08:17.010Z,0.30
2022-09-12T03:11:00.359Z,0.23
2022-09-12T03:13:38.814Z,0.20
2022-09-12T03:16:14.646Z,0.30
2022-09-12T03:18:52.255Z,0.30
2022-09-12T03:21:27.188Z,0.30
2022-09-12T03:24:06.081Z,0.40
2022-09-12T03:26:39.354Z,0.30
2022-09-12T03:29:08.851Z,0.30
2022-09-12T03:31:36.740Z,0.30
2022-09-12T03:34:05.102Z,0.37
2022-09-12T03:36:34.411Z,0.30
2022-09-12T03:39:02.274Z,0.47
2022-09-12T03:41:30.219Z,0.30
2022-09-12T03:43:58.059Z,0.40
2022-09-12T03:46:25.928Z,0.37
2022-09-12T03:48:53.796Z,0.40
2022-09-12T03:51:21.680Z,0.30
2022-09-12T03:53:50.936Z,0.23
2022-09-12T03:56:19.267Z,0.30
2022-09-12T03:58:47.996Z,0.30
2022-09-12T04:01:17.672Z,0.30
2022-09-12T04:03:46.720Z,0.50
2022-09-12T04:06:16.703Z,0.30
2022-09-12T04:08:45.662Z,0.30
2022-09-12T04:11:16.527Z,0.50
2022-09-12T04:13:45.514Z,0.40
2022-09-12T04:16:15.012Z,0.40
2022-09-12T04:18:43.240Z,0.50
2022-09-12T04:21:13.331Z,0.30
2022-09-12T04:23:41.236Z,0.33
2022-09-12T04:26:09.784Z,0.30
2022-09-12T04:28:39.676Z,0.30
2022-09-12T04:31:09.630Z,0.40
2022-09-12T04:33:37.995Z,0.40
2022-09-12T04:36:08.117Z,0.40
2022-09-12T04:38:37.076Z,0.50
2022-09-12T04:41:12.361Z,0.30
2022-09-12T04:43:41.959Z,0.30
2022-09-12T04:46:11.449Z,0.40
2022-09-12T04:48:39.736Z,0.30
2022-09-12T04:51:09.360Z,0.30
2022-09-12T04:53:37.986Z,0.30
2022-09-12T04:56:07.198Z,0.30
2022-09-12T04:58:36.113Z,0.40
2022-09-12T05:01:08.168Z,0.40
2022-09-12T05:03:38.863Z,0.50
2022-09-12T05:06:08.842Z,0.40
2022-09-12T05:08:36.836Z,0.40
2022-09-12T05:11:05.925Z,0.43
2022-09-12T05:13:35.107Z,0.40
2022-09-12T05:16:04.711Z,0.40
2022-09-12T05:18:35.427Z,0.30
2022-09-12T05:21:05.346Z,0.30
2022-09-12T05:23:33.874Z,0.33
2022-09-12T05:26:03.012Z,0.30
2022-09-12T05:28:33.854Z,0.30
2022-09-12T05:31:03.192Z,0.40
2022-09-12T05:33:33.448Z,0.30
2022-09-12T05:36:01.642Z,0.30
2022-09-12T05:38:29.746Z,0.30
2022-09-12T05:41:06.174Z,0.37
2022-09-12T05:43:34.300Z,0.33
2022-09-12T05:46:03.309Z,0.30
2022-09-12T05:48:31.480Z,0.40
2022-09-12T05:51:06.923Z,0.37
2022-09-12T05:53:34.831Z,0.40
2022-09-12T05:56:10.718Z,0.30
2022-09-12T05:58:41.087Z,0.30
2022-09-12T06:01:11.401Z,0.30
2022-09-12T06:03:42.803Z,0.33
2022-09-12T06:06:13.802Z,0.30
2022-09-12T06:08:43.041Z,0.30
2022-09-12T06:11:12.842Z,0.27
2022-09-12T06:13:42.259Z,0.30
2022-09-12T06:16:11.411Z,0.20
2022-09-12T06:18:40.406Z,0.30
2022-09-12T06:21:10.022Z,0.30
2022-09-12T06:23:39.660Z,0.20
2022-09-12T06:26:09.562Z,0.30
2022-09-12T06:28:39.321Z,0.20
2022-09-12T06:31:09.632Z,0.20
2022-09-12T06:33:39.197Z,0.30
2022-09-12T06:36:12.418Z,0.30
2022-09-12T06:38:42.231Z,0.30
2022-09-12T06:41:12.366Z,0.30
2022-09-12T06:43:41.045Z,0.30
2022-09-12T06:46:09.212Z,0.20
2022-09-12T06:48:41.508Z,0.30
2022-09-12T06:51:13.282Z,0.37
2022-09-12T06:53:43.691Z,0.20
2022-09-12T06:56:14.414Z,0.30
2022-09-12T06:58:43.337Z,0.23
2022-09-12T07:01:12.954Z,0.20
2022-09-12T07:03:42.379Z,0.20
2022-09-12T07:06:11.815Z,0.30
2022-09-12T07:08:41.914Z,0.30
2022-09-12T07:11:11.717Z,0.30
2022-09-12T07:13:40.044Z,0.30
2022-09-12T07:16:08.255Z,0.30
2022-09-12T07:18:40.091Z,0.30
2022-09-12T07:21:09.719Z,0.20
2022-09-12T07:23:37.925Z,0.30
2022-09-12T07:26:08.039Z,0.20
2022-09-12T07:28:36.378Z,0.30
2022-09-12T07:31:09.102Z,0.20
2022-09-12T07:33:37.663Z,0.30
2022-09-12T07:36:07.874Z,0.30
2022-09-12T07:38:36.646Z,0.30
2022-09-12T07:41:12.974Z,0.30
2022-09-12T07:43:41.769Z,0.30
2022-09-12T07:46:10.487Z,0.30
2022-09-12T07:48:39.096Z,0.30
2022-09-12T07:51:09.023Z,0.30
2022-09-12T07:53:39.187Z,0.30
2022-09-12T07:56:10.221Z,0.30
2022-09-12T07:58:41.970Z,0.30
2022-09-12T08:01:12.878Z,0.30
2022-09-12T08:03:41.746Z,0.30
2022-09-12T08:06:11.100Z,0.30
2022-09-12T08:08:39.572Z,0.30
2022-09-12T08:11:09.798Z,0.20
2022-09-12T08:13:40.501Z,0.23
2022-09-12T08:16:12.057Z,0.30
2022-09-12T08:18:40.792Z,0.30
2022-09-12T08:21:11.587Z,0.27
2022-09-12T08:23:39.583Z,0.30
2022-09-12T08:26:08.240Z,0.30
2022-09-12T08:28:37.410Z,0.40
2022-09-12T08:31:08.224Z,0.20
2022-09-12T08:33:37.142Z,0.20
2022-09-12T08:36:10.917Z,0.20
2022-09-12T08:38:39.944Z,0.20
2022-09-12T08:41:13.506Z,0.20
2022-09-12T08:43:57.342Z,0.20
2022-09-12T08:46:34.002Z,0.20
2022-09-12T08:49:03.964Z,0.20
2022-09-12T08:51:34.186Z,0.20
2022-09-12T08:54:03.347Z,0.10
2022-09-12T08:56:35.504Z,0.20
2022-09-12T08:59:04.240Z,0.20
2022-09-12T09:01:38.369Z,0.20
2022-09-12T09:04:21.666Z,0.10
2022-09-12T09:07:08.816Z,0.20
2022-09-12T09:09:49.237Z,0.20
2022-09-12T09:12:23.803Z,0.10
2022-09-12T09:15:12.127Z,0.20
2022-09-12T09:17:43.933Z,0.20
2022-09-12T09:20:28.822Z,0.20
2022-09-12T09:23:02.378Z,0.20
2022-09-12T09:25:42.047Z,0.10
2022-09-12T09:28:16.763Z,0.13
2022-09-12T09:30:45.407Z,0.20
2022-09-12T09:33:22.223Z,0.20
2022-09-12T09:35:57.765Z,0.10
2022-09-12T09:38:31.936Z,0.10
2022-09-12T09:41:14.947Z,0.20
2022-09-12T09:43:42.836Z,0.20
2022-09-12T09:46:11.767Z,0.20
2022-09-12T09:48:44.507Z,0.10
2022-09-12T09:51:12.943Z,0.10
2022-09-12T09:53:46.450Z,0.20
2022-09-12T09:56:23.341Z,0.10
2022-09-12T09:58:51.275Z,0.10
2022-09-12T10:01:19.832Z,0.20
2022-09-12T10:03:53.940Z,0.10
2022-09-12T10:06:31.044Z,0.10
2022-09-12T10:09:25.389Z,0.10
2022-09-12T10:11:54.963Z,0.10
2022-09-12T10:14:35.148Z,0.10
2022-09-12T10:17:04.696Z,0.10
2022-09-12T10:19:39.854Z,0.20
2022-09-12T10:22:15.023Z,0.10
2022-09-12T10:24:48.670Z,0.20
2022-09-12T10:27:20.207Z,0.10
2022-09-12T10:29:51.968Z,0.10
2022-09-12T10:32:31.126Z,0.10
2022-09-12T10:35:03.751Z,0.10
2022-09-12T10:37:34.514Z,0.20
2022-09-12T10:40:04.038Z,0.10
2022-09-12T10:42:50.847Z,0.10
2022-09-12T10:45:29.964Z,0.10
2022-09-12T10:48:03.022Z,0.10
2022-09-12T10:50:37.717Z,0.10
2022-09-12T10:53:19.515Z,0.10
2022-09-12T10:56:03.856Z,0.10
2022-09-12T10:58:50.632Z,0.10
2022-09-12T11:01:33.845Z,0.10
2022-09-12T11:04:21.514Z,0.10
2022-09-12T11:07:03.542Z,0.10
2022-09-12T11:09:37.447Z,0.10
2022-09-12T11:12:16.319Z,0.10
2022-09-12T11:14:59.866Z,0.10
2022-09-12T11:17:37.976Z,0.10
2022-09-12T11:20:43.749Z,0.10
2022-09-12T11:23:39.491Z,0.10
2022-09-12T11:26:17.379Z,0.10
2022-09-12T11:28:53.906Z,0.20
2022-09-12T11:31:45.727Z,0.40
2022-09-12T11:34:17.875Z,0.10
2022-09-12T11:36:56.954Z,0.10
2022-09-12T11:39:36.731Z,0.17
2022-09-12T11:42:11.213Z,0.10
2022-09-12T11:44:42.796Z,0.10
2022-09-12T11:47:14.155Z,0.10
2022-09-12T11:49:47.295Z,0.10
2022-09-12T11:52:18.114Z,0.10
2022-09-12T11:54:53.841Z,0.10
2022-09-12T11:57:28.319Z,0.10
2022-09-12T12:00:00.103Z,0.10
2022-09-12T12:02:29.674Z,0.10
2022-09-12T12:05:06.470Z,0.10
2022-09-12T12:07:45.328Z,0.10
2022-09-12T12:10:27.473Z,0.10
2022-09-12T12:12:57.548Z,0.10
2022-09-12T12:15:27.259Z,0.10
2022-09-12T12:18:03.731Z,0.10
2022-09-12T12:20:32.395Z,0.10
2022-09-12T12:23:01.275Z,0.10
2022-09-12T12:25:51.418Z,0.10
2022-09-12T12:28:50.660Z,0.10
2022-09-12T12:31:19.579Z,0.10
2022-09-12T12:33:57.405Z,0.10
2022-09-12T12:36:41.284Z,0.10
2022-09-12T12:39:49.837Z,0.10
2022-09-12T12:46:08.049Z,0.10
2022-09-12T12:48:56.110Z,0.10
2022-09-12T12:51:34.316Z,0.10
2022-09-12T12:54:04.790Z,0.10
2022-09-12T12:56:40.664Z,0.10
2022-09-12T12:59:18.649Z,0.10
2022-09-12T13:01:54.947Z,0.10
2022-09-12T13:04:25.949Z,0.20
2022-09-12T13:07:05.850Z,0.10
2022-09-12T13:09:39.787Z,0.10
2022-09-12T13:12:11.730Z,0.10
2022-09-12T13:14:51.482Z,0.10
2022-09-12T13:17:37.838Z,0.10
2022-09-12T13:20:29.061Z,0.10
2022-09-12T13:22:58.111Z,0.10
2022-09-12T13:25:29.677Z,0.10
2022-09-12T13:28:04.172Z,0.20
2022-09-12T13:30:34.377Z,0.10
2022-09-12T13:33:18.991Z,0.10
2022-09-12T13:36:14.062Z,0.45
2022-09-12T13:38:52.370Z,0.10
2022-09-12T13:41:43.829Z,0.03
2022-09-12T13:44:14.185Z,0.10
2022-09-12T13:46:42.542Z,0.10
2022-09-12T13:49:22.312Z,0.10
2022-09-12T13:51:59.463Z,0.10
2022-09-12T13:54:27.978Z,0.10
2022-09-12T13:56:56.112Z,0.10
2022-09-12T13:59:24.026Z,0.10
2022-09-12T14:01:52.137Z,0.10
2022-09-12T14:04:40.921Z,0.35
2022-09-12T14:07:15.007Z,0.10
2022-09-12T14:09:45.919Z,0.10
2022-09-12T14:12:22.187Z,0.10
2022-09-12T14:14:52.042Z,0.10
2022-09-12T14:17:25.276Z,0.10
2022-09-12T14:19:55.012Z,0.10
2022-09-12T14:22:23.476Z,0.10
2022-09-12T14:24:52.434Z,0.10
2022-09-12T14:27:24.463Z,0.10
2022-09-12T14:29:55.639Z,0.10
2022-09-12T14:32:25.403Z,0.10
2022-09-12T14:35:22.255Z,0.10
2022-09-12T14:37:52.399Z,0.10
2022-09-12T14:40:22.227Z,0.10
2022-09-12T14:42:51.778Z,0.10
2022-09-12T14:45:26.181Z,0.10
2022-09-12T14:47:54.820Z,0.10
2022-09-12T14:50:27.647Z,0.10
2022-09-12T14:53:05.366Z,0.10
2022-09-12T14:55:35.852Z,0.10
2022-09-12T14:58:23.357Z,0.10
2022-09-12T15:00:56.913Z,0.10
2022-09-12T15:03:28.090Z,0.10
2022-09-12T15:05:58.243Z,0.10
2022-09-12T15:08:26.803Z,0.10
2022-09-12T15:10:55.036Z,0.10
2022-09-12T15:13:25.717Z,0.10
2022-09-12T15:15:55.732Z,0.10
2022-09-12T15:18:26.510Z,0.10
2022-09-12T15:20:58.838Z,0.10
2022-09-12T15:23:38.209Z,0.10
2022-09-12T15:26:07.251Z,0.10
2022-09-12T15:28:35.762Z,0.10
2022-09-12T15:31:09.229Z,0.10
2022-09-12T15:33:37.091Z,0.10
2022-09-12T15:36:14.875Z,0.10
2022-09-12T15:38:42.809Z,0.10
2022-09-12T15:41:13.018Z,0.10
2022-09-12T15:43:40.975Z,0.10
2022-09-12T15:46:12.251Z,0.10
2022-09-12T15:48:40.447Z,0.10
2022-09-12T15:51:15.381Z,0.10
2022-09-12T15:53:44.334Z,0.10
2022-09-12T15:56:12.258Z,0.10
2022-09-12T15:58:49.988Z,0.10
2022-09-12T16:01:25.962Z,0.10
2022-09-12T16:03:54.184Z,0.10
2022-09-12T16:06:23.853Z,0.10
2022-09-12T16:08:52.320Z,0.10
2022-09-12T16:11:22.850Z,0.10
2022-09-12T16:13:52.471Z,0.10
2022-09-12T16:16:20.480Z,0.10
2022-09-12T16:18:48.476Z,0.10
2022-09-12T16:21:16.407Z,0.10
2022-09-12T16:23:45.856Z,0.10
2022-09-12T16:26:13.984Z,0.10
2022-09-12T16:28:42.370Z,0.10
2022-09-12T16:31:13.582Z,0.20
2022-09-12T16:33:41.913Z,0.20
2022-09-12T16:36:11.819Z,0.10
2022-09-12T16:38:42.081Z,0.10
2022-09-12T16:41:12.200Z,0.10
2022-09-12T16:43:40.975Z,0.10
2022-09-12T16:46:11.080Z,0.10
2022-09-12T16:48:44.444Z,0.10
2022-09-12T16:51:14.749Z,0.10
2022-09-12T16:53:42.913Z,0.10
2022-09-12T16:56:12.175Z,0.10
2022-09-12T16:58:42.332Z,0.10
2022-09-12T17:01:11.915Z,0.20
2022-09-12T17:03:40.035Z,0.10
2022-09-12T17:06:09.949Z,0.10
2022-09-12T17:08:39.506Z,0.10
2022-09-12T17:11:08.855Z,0.20
2022-09-12T17:14:02.730Z,0.10
2022-09-12T17:16:27.281Z,0.10
2022-09-12T17:18:56.122Z,0.20
2022-09-12T17:21:24.718Z,0.10
2022-09-12T17:23:52.593Z,0.17
2022-09-12T17:26:20.700Z,0.20
2022-09-12T17:28:50.069Z,0.20
2022-09-12T17:31:18.054Z,0.20
2022-09-12T17:33:46.242Z,0.20
2022-09-12T17:36:16.322Z,0.10
2022-09-12T17:38:46.371Z,0.20
2022-09-12T17:41:17.363Z,0.20
2022-09-12T17:43:46.029Z,0.20
2022-09-12T17:46:15.621Z,0.20
2022-09-12T17:48:43.671Z,0.20
2022-09-12T17:51:14.121Z,0.20
2022-09-12T17:53:42.407Z,0.20
2022-09-12T17:56:11.564Z,0.20
2022-09-12T17:58:39.655Z,0.20
2022-09-12T18:01:28.765Z,0.20
2022-09-12T18:04:00.443Z,0.20
2022-09-12T18:06:28.674Z,0.20
2022-09-12T18:08:57.003Z,0.20
2022-09-12T18:11:24.868Z,0.20
2022-09-12T18:13:52.735Z,0.27
2022-09-12T18:16:20.657Z,0.30
2022-09-12T18:18:50.899Z,0.30
2022-09-12T18:21:20.434Z,0.30
2022-09-12T18:23:48.326Z,0.30
2022-09-12T18:26:16.338Z,0.30
2022-09-12T18:28:45.595Z,0.30
2022-09-12T18:31:16.741Z,0.27
2022-09-12T18:33:45.159Z,0.30
2022-09-12T18:36:14.522Z,0.30
2022-09-12T18:38:45.138Z,0.20
2022-09-12T18:41:14.780Z,0.30
2022-09-12T18:43:43.072Z,0.30
2022-09-12T18:46:12.910Z,0.30
2022-09-12T18:48:40.957Z,0.30
2022-09-12T18:51:12.117Z,0.30
2022-09-12T18:53:40.708Z,0.40
2022-09-12T18:56:12.028Z,0.30
2022-09-12T18:58:41.576Z,0.30
2022-09-12T19:01:11.190Z,0.40
2022-09-12T19:03:39.142Z,0.33
2022-09-12T19:06:12.125Z,0.30
2022-09-12T19:08:40.714Z,0.30
2022-09-12T19:11:11.035Z,0.30
2022-09-12T19:13:40.687Z,0.30
2022-09-12T19:16:10.849Z,0.30
2022-09-12T19:18:39.623Z,0.30
2022-09-12T19:21:16.185Z,0.30
2022-09-12T19:23:44.075Z,0.30
2022-09-12T19:26:14.966Z,0.30
2022-09-12T19:28:43.428Z,0.30
2022-09-12T19:31:13.631Z,0.23
2022-09-12T19:33:42.454Z,0.30
2022-09-12T19:36:27.611Z,0.20
2022-09-12T19:39:00.469Z,0.30
2022-09-12T19:41:30.029Z,0.20
2022-09-12T19:43:58.085Z,0.30
2022-09-12T19:46:27.060Z,0.30
2022-09-12T19:48:55.406Z,0.30
2022-09-12T19:51:25.171Z,0.20
2022-09-12T19:53:53.628Z,0.30
2022-09-12T19:56:21.975Z,0.30
2022-09-12T19:58:56.116Z,0.30
2022-09-12T20:01:28.168Z,0.30
2022-09-12T20:03:57.009Z,0.40
2022-09-12T20:06:43.130Z,0.30
2022-09-12T20:09:10.959Z,0.30
2022-09-12T20:11:38.813Z,0.30
2022-09-12T20:14:08.099Z,0.30
2022-09-12T20:16:35.947Z,0.30
2022-09-12T20:19:06.958Z,0.30
2022-09-12T20:21:35.945Z,0.40
2022-09-12T20:24:06.502Z,0.30
2022-09-12T20:26:34.614Z,0.40
2022-09-12T20:29:03.248Z,0.30
2022-09-12T20:31:33.254Z,0.30
2022-09-12T20:34:01.341Z,0.30
2022-09-12T20:36:29.395Z,0.30
2022-09-12T20:38:59.925Z,0.40
2022-09-12T20:41:29.911Z,0.30
2022-09-12T20:43:58.397Z,0.30
2022-09-12T20:46:27.811Z,0.20
2022-09-12T20:48:58.343Z,0.20
2022-09-12T20:51:27.543Z,0.40
2022-09-12T20:53:56.539Z,0.30
2022-09-12T20:56:26.573Z,0.30
2022-09-12T20:58:55.079Z,0.40
2022-09-12T21:01:23.486Z,0.30
2022-09-12T21:03:51.537Z,0.30
2022-09-12T21:06:21.313Z,0.50
2022-09-12T21:08:50.445Z,0.30
2022-09-12T21:11:19.505Z,0.40
2022-09-12T21:13:47.879Z,0.30
2022-09-12T21:16:18.298Z,0.30
2022-09-12T21:18:46.536Z,0.40
2022-09-12T21:21:15.794Z,0.40
2022-09-12T21:23:45.086Z,0.30
2022-09-12T21:26:13.060Z,0.30
2022-09-12T21:28:41.087Z,0.40
2022-09-12T21:31:09.160Z,0.30
2022-09-12T21:33:37.152Z,0.40
2022-09-12T21:36:06.196Z,0.40
2022-09-12T21:38:34.966Z,0.50
2022-09-12T21:41:09.298Z,0.27
2022-09-12T21:43:38.026Z,0.30
2022-09-12T21:46:07.078Z,0.30
2022-09-12T21:48:35.758Z,0.23
2022-09-12T21:51:04.605Z,0.30
2022-09-12T21:53:33.005Z,0.40
2022-09-12T21:56:05.595Z,0.40
2022-09-12T21:58:34.875Z,0.30
2022-09-12T22:01:02.999Z,0.30
2022-09-12T22:03:31.289Z,0.20
2022-09-12T22:05:59.310Z,0.30
2022-09-12T22:08:27.477Z,0.30
2022-09-12T22:10:59.415Z,0.30
2022-09-12T22:13:27.390Z,0.30
2022-09-12T22:15:56.894Z,0.30
2022-09-12T22:18:24.902Z,0.40
2022-09-12T22:21:00.109Z,0.40
2022-09-12T22:23:45.698Z,0.30
2022-09-12T22:26:14.082Z,0.23
2022-09-12T22:28:42.616Z,0.30
2022-09-12T22:31:13.206Z,0.20
2022-09-12T22:33:41.539Z,0.30
2022-09-12T22:36:10.923Z,0.30
2022-09-12T22:38:38.871Z,0.20
2022-09-12T22:41:08.312Z,0.37
2022-09-12T22:43:37.225Z,0.40
2022-09-12T22:46:07.887Z,0.40
2022-09-12T22:48:37.792Z,0.30
2022-09-12T22:51:06.389Z,0.30
2022-09-12T22:53:34.678Z,0.30
2022-09-12T22:56:04.931Z,0.30
2022-09-12T22:58:33.001Z,0.30
2022-09-12T23:01:00.967Z,0.30
2022-09-12T23:03:28.898Z,0.30
2022-09-12T23:05:58.259Z,0.30
2022-09-12T23:08:29.358Z,0.40
2022-09-12T23:11:02.583Z,0.30
2022-09-12T23:13:30.977Z,0.30
2022-09-12T23:15:59.643Z,0.30
2022-09-12T23:18:28.226Z,0.20
2022-09-12T23:21:02.012Z,0.20
2022-09-12T23:23:30.239Z,0.30
2022-09-12T23:26:06.117Z,0.30
2022-09-12T23:28:34.502Z,0.33
2022-09-12T23:31:03.140Z,0.30
2022-09-12T23:33:32.525Z,0.20
2022-09-12T23:36:03.061Z,0.30
2022-09-12T23:38:31.172Z,0.30
2022-09-12T23:40:59.959Z,0.13
2022-09-12T23:43:28.061Z,0.40
2022-09-12T23:45:55.983Z,0.30
2022-09-12T23:48:23.905Z,0.30
2022-09-12T23:50:51.787Z,0.30
2022-09-12T23:53:21.859Z,0.30
2022-09-12T23:55:50.271Z,0.30
2022-09-12T23:58:18.561Z,0.30
